Time;durP1;ratioP1;P1;durP2;ratioP2;P2;SDS_P1;SDS_P2;PMS_P1;PMS_P2;Temp;Humidity;BMP_temperature;BMP_pressure;BME280_temperature;BME280_humidity;BME280_pressure;Samples;Min_cycle;Max_cycle;Signal;HPM_P1;HPM_P2
2022/11/25 00:01:16;;;;;;;16.90;4.57;;;6.70;99.90;;;;;;5036539;28;20413;-73
2022/11/25 00:03:43;;;;;;;18.52;3.95;;;6.70;99.90;;;;;;5031526;28;20758;-73
2022/11/25 00:06:19;;;;;;;16.75;4.10;;;6.80;99.90;;;;;;5032905;28;20410;-73
2022/11/25 00:08:46;;;;;;;17.95;4.40;;;6.80;99.90;;;;;;5029482;28;20561;-72
2022/11/25 00:11:13;;;;;;;14.68;4.03;;;6.80;99.90;;;;;;5028745;28;20494;-73
2022/11/25 00:13:40;;;;;;;16.63;4.30;;;6.90;99.90;;;;;;4984702;28;20494;-72
2022/11/25 00:16:32;;;;;;;17.23;4.10;;;6.90;99.90;;;;;;5020150;28;20511;-72
2022/11/25 00:18:58;;;;;;;16.20;3.95;;;6.90;99.90;;;;;;4991420;28;20423;-73
2022/11/25 00:21:27;;;;;;;15.70;4.13;;;6.90;99.90;;;;;;5014877;28;20418;-72
2022/11/25 00:23:55;;;;;;;15.77;4.15;;;6.90;99.90;;;;;;5009642;28;20497;-72
2022/11/25 00:26:21;;;;;;;16.73;4.95;;;6.90;99.90;;;;;;5001984;28;20419;-74
2022/11/25 00:28:48;;;;;;;20.92;4.75;;;6.80;99.90;;;;;;5019682;28;20395;-74
2022/11/25 00:31:21;;;;;;;16.17;4.70;;;6.90;99.90;;;;;;5010294;28;20440;-74
2022/11/25 00:33:48;;;;;;;19.67;4.28;;;6.90;99.90;;;;;;5020995;28;20400;-74
2022/11/25 00:36:22;;;;;;;17.80;4.95;;;6.90;99.90;;;;;;5009480;28;20498;-75
2022/11/25 00:38:56;;;;;;;19.65;4.85;;;6.90;99.90;;;;;;4995220;28;20820;-75
2022/11/25 00:46:56;;;;;;;16.80;4.53;;;6.80;99.90;;;;;;5029941;28;20938;-75
2022/11/25 00:49:22;;;;;;;20.73;5.28;;;6.90;99.90;;;;;;5011948;28;21061;-74
2022/11/25 00:51:48;;;;;;;16.55;4.47;;;6.90;99.90;;;;;;5011324;28;20437;-74
2022/11/25 00:54:14;;;;;;;18.10;4.60;;;6.90;99.90;;;;;;5017845;28;20431;-74
2022/11/25 00:56:40;;;;;;;16.60;4.25;;;6.90;99.90;;;;;;5030697;28;20817;-74
2022/11/25 00:59:06;;;;;;;23.48;4.70;;;6.90;99.90;;;;;;5004874;28;20522;-74
2022/11/25 01:01:32;;;;;;;19.63;5.00;;;6.90;99.90;;;;;;5018025;28;20439;-74
2022/11/25 01:03:58;;;;;;;19.23;4.40;;;6.90;99.90;;;;;;5017380;28;20429;-75
2022/11/25 01:06:24;;;;;;;21.25;4.68;;;6.90;99.90;;;;;;5029575;28;20884;-74
2022/11/25 01:08:50;;;;;;;15.43;3.93;;;6.90;99.90;;;;;;5029515;28;20411;-74
2022/11/25 01:11:18;;;;;;;23.05;5.05;;;6.90;99.90;;;;;;5008999;28;20436;-74
2022/11/25 01:13:44;;;;;;;14.63;3.83;;;6.90;99.90;;;;;;5013953;28;20451;-75
2022/11/25 01:16:15;;;;;;;16.13;4.33;;;6.90;99.90;;;;;;5021945;28;20411;-74
2022/11/25 01:18:41;;;;;;;17.77;4.17;;;6.90;99.90;;;;;;5002642;28;20426;-74
2022/11/25 01:21:09;;;;;;;13.43;3.72;;;6.90;99.90;;;;;;5009229;28;20399;-74
2022/11/25 01:23:35;;;;;;;14.70;4.37;;;6.90;99.90;;;;;;5028917;28;20433;-74
2022/11/25 01:26:06;;;;;;;20.52;5.10;;;6.90;99.90;;;;;;5020398;28;20413;-74
2022/11/25 01:28:32;;;;;;;15.88;3.83;;;7.00;99.90;;;;;;5029926;28;20419;-74
2022/11/25 01:31:02;;;;;;;17.17;3.85;;;7.00;99.90;;;;;;5029230;28;20399;-74
2022/11/25 01:33:31;;;;;;;16.73;4.32;;;7.00;99.90;;;;;;4983407;28;20866;-74
2022/11/25 01:36:01;;;;;;;17.40;4.38;;;7.00;99.90;;;;;;5023202;28;20423;-73
2022/11/25 01:38:27;;;;;;;16.73;4.57;;;7.00;99.90;;;;;;5020034;28;20409;-73
2022/11/25 01:40:52;;;;;;;13.77;4.13;;;7.00;99.90;;;;;;5007078;28;20411;-73
2022/11/25 01:43:18;;;;;;;18.20;4.35;;;7.00;99.90;;;;;;5011946;28;20429;-73
2022/11/25 01:45:44;;;;;;;16.67;4.27;;;7.00;99.90;;;;;;5009401;28;20415;-73
2022/11/25 01:48:19;;;;;;;16.40;4.30;;;7.00;99.90;;;;;;5021421;28;20405;-73
2022/11/25 01:50:47;;;;;;;14.43;3.92;;;7.00;99.90;;;;;;5013849;28;20559;-73
2022/11/25 01:53:15;;;;;;;16.42;4.22;;;7.10;99.90;;;;;;5019016;28;20430;-73
2022/11/25 01:55:45;;;;;;;18.50;4.60;;;7.10;99.90;;;;;;4995070;28;20448;-73
2022/11/25 01:58:30;;;;;;;19.77;4.32;;;7.10;99.90;;;;;;4996012;28;20992;-73
2022/11/25 02:00:55;;;;;;;17.08;4.53;;;7.00;99.90;;;;;;5010912;28;20443;-73
2022/11/25 02:03:27;;;;;;;19.13;4.28;;;7.00;99.90;;;;;;5014667;28;20508;-73
2022/11/25 02:06:19;;;;;;;16.05;4.25;;;7.00;99.90;;;;;;4997323;28;20425;-73
2022/11/25 02:08:50;;;;;;;17.40;4.20;;;7.00;99.90;;;;;;5028508;28;20825;-73
2022/11/25 02:11:17;;;;;;;18.05;4.90;;;7.00;99.90;;;;;;5026897;28;20968;-73
2022/11/25 02:13:44;;;;;;;18.80;4.50;;;7.10;99.90;;;;;;5005044;28;20414;-73
2022/11/25 02:16:10;;;;;;;19.20;4.75;;;7.00;99.90;;;;;;5003325;28;20430;-73
2022/11/25 02:18:36;;;;;;;20.85;4.90;;;7.00;99.90;;;;;;5017596;28;20421;-73
2022/11/25 02:21:01;;;;;;;16.80;4.73;;;7.00;99.90;;;;;;5028747;28;20407;-73
2022/11/25 02:23:42;;;;;;;17.25;4.50;;;7.00;99.90;;;;;;5028598;28;20477;-73
2022/11/25 02:26:08;;;;;;;22.27;4.72;;;7.00;99.90;;;;;;5028351;28;20490;-73
2022/11/25 02:28:34;;;;;;;19.83;4.50;;;7.00;99.90;;;;;;4994772;28;20979;-73
2022/11/25 02:31:00;;;;;;;16.80;4.22;;;7.00;99.90;;;;;;4993258;28;20442;-73
2022/11/25 02:33:27;;;;;;;18.40;4.75;;;7.00;99.90;;;;;;5027498;28;20886;-73
2022/11/25 02:35:54;;;;;;;15.90;3.65;;;7.00;99.90;;;;;;4994387;28;20407;-73
2022/11/25 02:38:38;;;;;;;14.77;4.07;;;7.00;99.90;;;;;;5008122;28;20415;-72
2022/11/25 02:41:12;;;;;;;17.73;4.43;;;7.00;99.90;;;;;;5010833;28;20927;-73
2022/11/25 02:43:38;;;;;;;17.00;3.80;;;7.00;99.90;;;;;;5025093;28;20418;-73
2022/11/25 02:46:07;;;;;;;15.68;4.03;;;7.00;99.90;;;;;;5009588;28;20403;-73
2022/11/25 02:48:35;;;;;;;18.88;4.72;;;7.00;99.90;;;;;;5007372;28;21000;-73
2022/11/25 02:51:01;;;;;;;16.92;4.25;;;7.00;99.90;;;;;;5020218;28;20419;-73
2022/11/25 02:53:27;;;;;;;19.15;4.45;;;7.00;99.90;;;;;;4993877;28;20441;-73
2022/11/25 02:55:53;;;;;;;18.70;4.95;;;7.00;99.90;;;;;;5017807;28;20495;-73
2022/11/25 02:58:19;;;;;;;16.35;4.07;;;7.00;99.90;;;;;;5027992;28;20407;-73
2022/11/25 03:00:45;;;;;;;22.75;4.82;;;7.00;99.90;;;;;;5008938;28;20407;-73
2022/11/25 03:03:12;;;;;;;18.70;4.65;;;7.00;99.90;;;;;;5017723;28;20411;-73
2022/11/25 03:05:37;;;;;;;20.02;4.35;;;7.00;99.90;;;;;;5009274;28;20422;-73
2022/11/25 03:08:04;;;;;;;21.75;5.15;;;7.00;99.90;;;;;;5036306;28;20413;-73
2022/11/25 03:10:29;;;;;;;17.90;5.13;;;7.00;99.90;;;;;;5043615;28;20415;-73
2022/11/25 03:12:55;;;;;;;18.15;5.13;;;7.00;99.90;;;;;;5020957;28;20843;-74
2022/11/25 03:15:21;;;;;;;22.53;5.13;;;7.00;99.90;;;;;;5017025;28;20407;-73
2022/11/25 03:17:47;;;;;;;20.77;5.38;;;7.00;99.90;;;;;;5003676;28;20407;-73
2022/11/25 03:20:14;;;;;;;21.83;5.25;;;7.00;99.90;;;;;;5028421;28;20399;-74
2022/11/25 03:22:43;;;;;;;21.03;4.87;;;7.00;99.90;;;;;;5038536;28;20442;-74
2022/11/25 03:25:10;;;;;;;21.50;5.22;;;6.90;99.90;;;;;;5021007;28;20453;-74
2022/11/25 03:27:37;;;;;;;18.70;5.68;;;7.00;99.90;;;;;;5038172;28;20410;-73
2022/11/25 03:30:05;;;;;;;20.92;5.50;;;7.00;99.90;;;;;;5033554;28;20400;-73
2022/11/25 03:32:30;;;;;;;18.70;5.50;;;7.00;99.90;;;;;;5037138;28;20447;-73
2022/11/25 03:34:56;;;;;;;20.88;5.30;;;6.90;99.90;;;;;;4999186;28;20489;-74
2022/11/25 03:37:22;;;;;;;17.02;5.00;;;6.90;99.90;;;;;;5036742;28;20474;-74
2022/11/25 03:39:47;;;;;;;22.40;5.80;;;7.00;99.90;;;;;;5042578;28;20461;-73
2022/11/25 03:42:13;;;;;;;20.30;5.30;;;7.00;99.90;;;;;;5036226;28;20403;-73
2022/11/25 03:44:39;;;;;;;22.13;5.13;;;7.00;99.90;;;;;;4997682;28;20405;-73
2022/11/25 03:47:04;;;;;;;21.00;5.20;;;7.00;99.90;;;;;;5015012;28;20412;-73
2022/11/25 03:49:30;;;;;;;17.65;5.60;;;7.00;99.90;;;;;;4997477;28;20434;-73
2022/11/25 03:51:56;;;;;;;19.63;5.17;;;6.90;99.90;;;;;;5031423;28;20431;-73
2022/11/25 03:54:21;;;;;;;21.10;5.20;;;7.00;99.90;;;;;;5017903;28;20418;-73
2022/11/25 03:56:47;;;;;;;25.57;6.10;;;7.00;99.90;;;;;;5031483;28;20486;-73
2022/11/25 03:59:12;;;;;;;21.00;5.75;;;7.00;99.90;;;;;;5029401;28;20928;-73
2022/11/25 04:01:38;;;;;;;19.50;5.43;;;7.00;99.90;;;;;;5031481;28;20490;-73
2022/11/25 04:04:03;;;;;;;22.13;5.70;;;7.00;99.90;;;;;;5051011;28;20408;-74
2022/11/25 04:06:30;;;;;;;20.30;6.20;;;7.00;99.90;;;;;;5019343;28;20406;-74
2022/11/25 04:08:56;;;;;;;17.17;5.75;;;7.00;99.90;;;;;;5025137;28;20513;-73
2022/11/25 04:12:45;;;;;;;22.05;5.82;;;7.00;99.90;;;;;;5021440;28;20533;-74
2022/11/25 04:14:08;;;;;;;23.17;6.63;;;7.00;99.90;;;;;;5045575;28;20397;-74
2022/11/25 04:16:33;;;;;;;22.45;6.70;;;7.00;99.90;;;;;;5038686;28;20461;-74
2022/11/25 04:18:59;;;;;;;23.37;6.20;;;7.10;99.90;;;;;;5031112;28;20469;-73
2022/11/25 04:21:25;;;;;;;23.83;6.03;;;7.00;99.90;;;;;;5023105;28;20416;-73
2022/11/25 04:23:50;;;;;;;23.07;6.73;;;7.10;99.90;;;;;;5050569;28;20972;-74
2022/11/25 04:26:16;;;;;;;20.53;5.90;;;7.10;99.90;;;;;;5032968;28;20508;-73
2022/11/25 04:28:41;;;;;;;22.07;6.70;;;7.10;99.90;;;;;;5034680;28;20438;-73
2022/11/25 04:31:08;;;;;;;23.40;7.38;;;7.10;99.90;;;;;;5031169;28;20478;-74
2022/11/25 04:33:34;;;;;;;25.90;6.97;;;7.10;99.90;;;;;;5036735;28;20790;-73
2022/11/25 04:35:59;;;;;;;25.05;6.53;;;7.10;99.90;;;;;;5016378;28;20405;-73
2022/11/25 04:38:25;;;;;;;24.10;6.77;;;7.10;99.90;;;;;;5039884;28;20459;-73
2022/11/25 04:40:51;;;;;;;23.47;6.90;;;7.10;99.90;;;;;;5024673;28;20941;-73
2022/11/25 04:43:16;;;;;;;23.33;7.35;;;7.10;99.90;;;;;;5019454;28;20401;-73
2022/11/25 04:45:42;;;;;;;21.40;6.77;;;7.20;99.90;;;;;;5030109;28;20405;-73
2022/11/25 04:48:07;;;;;;;25.17;7.43;;;7.20;99.90;;;;;;5027791;28;20469;-73
2022/11/25 04:50:33;;;;;;;29.00;7.73;;;7.20;99.90;;;;;;5010152;28;20405;-73
2022/11/25 04:52:59;;;;;;;23.73;7.72;;;7.20;99.90;;;;;;5047882;28;20460;-73
2022/11/25 04:55:24;;;;;;;24.80;7.70;;;7.20;99.90;;;;;;5021055;28;20835;-73
2022/11/25 04:57:50;;;;;;;26.77;7.35;;;7.30;99.90;;;;;;5028025;28;20401;-73
2022/11/25 05:00:16;;;;;;;23.37;6.93;;;7.30;99.90;;;;;;5049855;28;20401;-73
2022/11/25 05:02:41;;;;;;;23.37;7.37;;;7.30;99.90;;;;;;5007010;28;20943;-73
2022/11/25 05:05:07;;;;;;;27.87;8.23;;;7.20;99.90;;;;;;5022257;28;20462;-73
2022/11/25 05:07:33;;;;;;;27.55;8.27;;;7.20;99.90;;;;;;5028234;28;20415;-73
2022/11/25 05:09:59;;;;;;;26.10;7.90;;;7.20;99.90;;;;;;5013759;28;20411;-73
2022/11/25 05:12:27;;;;;;;27.83;7.78;;;7.20;99.90;;;;;;5031680;28;20443;-74
2022/11/25 05:14:53;;;;;;;25.90;8.23;;;7.20;99.90;;;;;;5030225;28;20408;-73
2022/11/25 05:17:22;;;;;;;26.23;8.15;;;7.30;99.90;;;;;;5029933;28;20561;-73
2022/11/25 05:19:48;;;;;;;28.38;8.10;;;7.30;99.90;;;;;;5028836;28;20415;-73
2022/11/25 05:22:17;;;;;;;23.00;8.07;;;7.20;99.90;;;;;;5029331;28;20932;-73
2022/11/25 05:24:42;;;;;;;21.95;7.93;;;7.30;99.90;;;;;;5030159;28;20418;-74
2022/11/25 05:27:08;;;;;;;25.77;8.67;;;7.30;99.90;;;;;;5031315;28;20447;-74
2022/11/25 05:29:34;;;;;;;25.25;8.30;;;7.30;99.90;;;;;;5022442;28;20495;-73
2022/11/25 05:32:00;;;;;;;25.15;8.48;;;7.30;99.90;;;;;;5031271;28;20815;-73
2022/11/25 05:34:26;;;;;;;27.25;9.45;;;7.30;99.90;;;;;;5045965;28;20410;-73
2022/11/25 05:36:51;;;;;;;30.03;8.97;;;7.30;99.90;;;;;;5027996;28;20832;-73
2022/11/25 05:39:18;;;;;;;29.42;9.30;;;7.30;99.90;;;;;;5042426;28;20415;-73
2022/11/25 05:41:43;;;;;;;28.60;8.82;;;7.30;99.90;;;;;;5010660;28;20965;-73
2022/11/25 05:44:09;;;;;;;23.38;9.20;;;7.30;99.90;;;;;;5028482;28;20419;-73
2022/11/25 05:46:35;;;;;;;29.53;9.60;;;7.30;99.90;;;;;;5040351;28;20422;-73
2022/11/25 05:49:00;;;;;;;27.65;9.75;;;7.40;99.90;;;;;;5011594;28;20489;-73
2022/11/25 05:51:28;;;;;;;27.33;9.75;;;7.40;99.90;;;;;;5013979;28;20409;-73
2022/11/25 05:53:54;;;;;;;29.35;9.40;;;7.30;99.90;;;;;;5014733;28;20414;-73
2022/11/25 05:56:20;;;;;;;27.40;10.10;;;7.40;99.90;;;;;;5036503;28;20488;-73
2022/11/25 05:58:46;;;;;;;29.53;9.83;;;7.30;99.90;;;;;;5047783;28;20493;-73
2022/11/25 06:01:14;;;;;;;24.45;9.52;;;7.40;99.90;;;;;;5042635;28;20410;-73
2022/11/25 06:03:40;;;;;;;27.35;9.48;;;7.40;99.90;;;;;;5021704;28;20403;-73
2022/11/25 06:06:06;;;;;;;27.63;9.43;;;7.30;99.90;;;;;;5037009;28;20407;-73
2022/11/25 06:08:34;;;;;;;30.30;9.68;;;7.40;99.90;;;;;;5020420;28;20917;-74
2022/11/25 06:11:04;;;;;;;25.15;8.98;;;7.30;99.90;;;;;;5026664;28;20443;-74
2022/11/25 06:13:30;;;;;;;30.60;9.47;;;7.40;99.90;;;;;;5030384;28;20786;-73
2022/11/25 06:15:55;;;;;;;29.43;9.50;;;7.40;99.90;;;;;;5018406;28;20401;-73
2022/11/25 06:18:21;;;;;;;27.50;9.02;;;7.30;99.90;;;;;;4997551;28;20415;-74
2022/11/25 06:20:55;;;;;;;28.30;8.80;;;7.30;99.90;;;;;;5026286;28;20439;-73
2022/11/25 06:23:21;;;;;;;27.58;9.63;;;7.30;99.90;;;;;;4996417;28;20407;-73
2022/11/25 06:25:47;;;;;;;25.10;9.70;;;7.30;99.90;;;;;;5023673;28;20403;-74
2022/11/25 06:28:12;;;;;;;28.23;10.60;;;7.30;99.90;;;;;;5042129;28;20436;-74
2022/11/25 06:30:38;;;;;;;27.30;10.30;;;7.30;99.90;;;;;;5019003;28;20409;-74
2022/11/25 06:33:03;;;;;;;28.52;11.05;;;7.30;99.90;;;;;;5012726;28;20433;-73
2022/11/25 06:35:29;;;;;;;32.63;13.00;;;7.30;99.90;;;;;;5015681;28;20757;-73
2022/11/25 06:37:56;;;;;;;35.72;13.50;;;7.30;99.90;;;;;;5011815;28;20487;-73
2022/11/25 06:40:22;;;;;;;37.90;14.00;;;7.30;99.90;;;;;;5036593;28;20398;-74
2022/11/25 06:42:47;;;;;;;34.67;13.82;;;7.40;99.90;;;;;;5029707;28;20766;-74
2022/11/25 06:45:13;;;;;;;34.20;14.60;;;7.40;99.90;;;;;;5012371;28;20404;-73
2022/11/25 06:47:39;;;;;;;39.10;14.32;;;7.40;99.90;;;;;;5023891;28;20414;-73
2022/11/25 06:50:05;;;;;;;30.87;13.57;;;7.50;99.90;;;;;;5029110;28;20413;-73
2022/11/25 06:52:31;;;;;;;31.25;13.40;;;7.50;99.90;;;;;;5028643;28;21286;-73
2022/11/25 06:54:57;;;;;;;30.20;13.55;;;7.50;99.90;;;;;;5028032;28;20407;-73
2022/11/25 06:57:22;;;;;;;34.90;13.80;;;7.60;99.90;;;;;;5042199;28;20401;-73
2022/11/25 06:59:48;;;;;;;33.47;13.40;;;7.60;99.90;;;;;;5018752;28;20409;-73
2022/11/25 07:02:14;;;;;;;30.15;12.85;;;7.60;99.90;;;;;;5046124;28;20405;-73
2022/11/25 07:04:40;;;;;;;35.27;13.37;;;7.60;99.90;;;;;;5018571;28;20488;-73
2022/11/25 07:07:06;;;;;;;31.30;13.52;;;7.70;99.90;;;;;;5029707;28;20413;-73
2022/11/25 07:09:32;;;;;;;37.40;13.15;;;7.70;99.90;;;;;;5047969;28;20393;-73
2022/11/25 07:11:57;;;;;;;30.40;13.35;;;7.70;99.90;;;;;;5034258;28;20462;-73
2022/11/25 07:14:23;;;;;;;35.15;13.60;;;7.70;99.90;;;;;;5014153;28;20447;-73
2022/11/25 07:16:49;;;;;;;33.50;13.33;;;7.70;99.90;;;;;;5025282;28;20407;-73
2022/11/25 07:19:17;;;;;;;34.38;12.82;;;7.70;99.90;;;;;;5007344;28;20415;-73
2022/11/25 07:21:44;;;;;;;35.83;13.80;;;7.70;99.90;;;;;;5046465;28;20863;-73
2022/11/25 07:24:12;;;;;;;34.30;13.02;;;7.70;99.90;;;;;;5052500;28;20401;-73
2022/11/25 07:26:39;;;;;;;32.53;13.15;;;7.80;99.90;;;;;;5052218;28;20416;-73
2022/11/25 07:29:08;;;;;;;32.10;14.55;;;7.80;99.90;;;;;;5042757;28;20805;-73
2022/11/25 07:31:36;;;;;;;34.67;13.05;;;7.70;99.90;;;;;;5031496;28;20436;-73
2022/11/25 07:34:05;;;;;;;30.90;13.02;;;7.70;99.90;;;;;;5014951;28;20463;-73
2022/11/25 07:36:32;;;;;;;35.45;13.40;;;7.80;99.90;;;;;;5028589;28;20407;-73
2022/11/25 07:39:00;;;;;;;30.92;12.80;;;7.80;99.90;;;;;;5031364;28;20399;-73
2022/11/25 07:41:28;;;;;;;33.80;12.48;;;7.80;99.90;;;;;;5035735;28;20903;-73
2022/11/25 07:43:59;;;;;;;35.15;12.30;;;7.80;99.90;;;;;;5031631;28;20403;-73
2022/11/25 07:46:32;;;;;;;34.88;12.38;;;7.80;99.90;;;;;;5034636;28;20512;-73
2022/11/25 07:49:01;;;;;;;31.98;12.27;;;7.80;99.90;;;;;;5031464;28;20464;-73
2022/11/25 07:51:30;;;;;;;30.70;11.50;;;7.80;99.90;;;;;;5014593;28;20452;-73
2022/11/25 07:53:58;;;;;;;35.03;12.38;;;7.80;99.90;;;;;;5022643;28;20474;-74
2022/11/25 07:56:24;;;;;;;30.75;12.00;;;7.80;99.90;;;;;;5050332;28;20441;-73
2022/11/25 07:58:50;;;;;;;28.80;11.52;;;7.80;99.90;;;;;;5001433;28;20430;-73
2022/11/25 08:01:17;;;;;;;34.27;12.10;;;7.80;99.90;;;;;;5000232;28;20909;-73
2022/11/25 08:03:44;;;;;;;35.17;11.82;;;7.80;99.90;;;;;;5014752;28;20462;-73
2022/11/25 08:06:13;;;;;;;29.13;11.23;;;7.90;99.90;;;;;;5031846;28;20407;-74
2022/11/25 08:08:40;;;;;;;26.37;10.57;;;7.80;99.90;;;;;;5012346;28;20415;-74
2022/11/25 08:11:13;;;;;;;24.33;10.98;;;7.90;99.90;;;;;;5000365;28;20421;-73
2022/11/25 08:13:39;;;;;;;25.63;10.40;;;7.90;99.90;;;;;;5026285;28;20431;-73
2022/11/25 08:16:05;;;;;;;28.23;10.07;;;7.90;99.90;;;;;;5013098;28;20766;-73
2022/11/25 08:18:31;;;;;;;27.67;10.23;;;7.90;99.90;;;;;;5028062;28;20497;-73
2022/11/25 08:21:03;;;;;;;24.20;9.73;;;8.00;99.90;;;;;;5025467;28;20408;-73
2022/11/25 08:23:30;;;;;;;29.27;9.77;;;8.00;99.90;;;;;;5026953;28;20856;-73
2022/11/25 08:25:56;;;;;;;22.50;9.35;;;8.00;99.90;;;;;;5026973;28;20400;-73
2022/11/25 08:28:22;;;;;;;25.13;9.13;;;8.10;99.90;;;;;;5029968;28;20436;-73
2022/11/25 08:30:48;;;;;;;21.08;8.65;;;8.10;99.90;;;;;;5012159;28;20414;-74
2022/11/25 08:33:13;;;;;;;22.00;8.30;;;8.20;99.90;;;;;;5003360;28;20431;-73
2022/11/25 08:35:39;;;;;;;22.37;8.73;;;8.20;99.90;;;;;;5030925;28;20414;-73
2022/11/25 08:38:06;;;;;;;21.35;8.32;;;8.20;99.90;;;;;;5019834;28;20412;-73
2022/11/25 08:40:34;;;;;;;23.10;8.20;;;8.20;99.90;;;;;;5013095;28;20443;-73
2022/11/25 08:43:00;;;;;;;20.27;8.23;;;8.30;99.90;;;;;;5030015;28;20435;-73
2022/11/25 08:45:26;;;;;;;26.38;8.35;;;8.30;99.90;;;;;;5003223;28;20954;-74
2022/11/25 08:47:52;;;;;;;19.77;7.82;;;8.30;99.90;;;;;;5012568;28;20407;-74
2022/11/25 08:50:18;;;;;;;21.20;8.13;;;8.40;99.90;;;;;;5007878;28;21007;-73
2022/11/25 08:52:44;;;;;;;18.98;8.10;;;8.40;99.90;;;;;;4998355;28;20443;-73
2022/11/25 08:55:10;;;;;;;18.33;8.32;;;8.50;99.90;;;;;;5004125;28;21126;-73
2022/11/25 08:57:36;;;;;;;17.75;8.10;;;8.50;99.90;;;;;;5011260;28;20403;-74
2022/11/25 09:00:04;;;;;;;20.70;7.95;;;8.60;99.90;;;;;;5030758;28;20437;-73
2022/11/25 09:02:29;;;;;;;17.52;7.30;;;8.60;99.90;;;;;;4987476;28;20418;-74
2022/11/25 09:04:55;;;;;;;18.57;7.30;;;8.60;99.90;;;;;;5030116;28;20498;-74
2022/11/25 09:07:21;;;;;;;18.45;7.00;;;8.60;99.90;;;;;;5029889;28;20502;-73
2022/11/25 09:09:46;;;;;;;16.60;7.07;;;8.60;99.90;;;;;;5005640;28;20445;-74
2022/11/25 09:12:12;;;;;;;18.53;6.70;;;8.60;99.90;;;;;;5008702;28;20521;-74
2022/11/25 09:14:39;;;;;;;16.90;7.13;;;8.70;99.90;;;;;;5030451;28;20418;-73
2022/11/25 09:17:11;;;;;;;21.23;6.93;;;8.70;99.90;;;;;;5016669;28;20811;-73
2022/11/25 09:19:37;;;;;;;16.70;6.07;;;8.80;99.90;;;;;;4987576;28;20419;-73
2022/11/25 09:22:02;;;;;;;17.10;5.73;;;8.80;99.90;;;;;;5006794;28;20415;-73
2022/11/25 09:24:28;;;;;;;17.77;5.65;;;8.80;99.90;;;;;;5003496;28;20411;-73
2022/11/25 09:26:54;;;;;;;16.42;5.35;;;8.80;99.90;;;;;;5030024;28;20407;-73
2022/11/25 09:29:20;;;;;;;13.27;5.27;;;8.80;99.90;;;;;;5022211;28;20489;-73
2022/11/25 09:31:45;;;;;;;15.63;5.30;;;8.90;99.90;;;;;;5027184;28;20411;-73
2022/11/25 09:34:11;;;;;;;14.77;5.03;;;8.90;99.90;;;;;;5025931;28;20912;-73
2022/11/25 09:36:37;;;;;;;11.75;4.75;;;9.00;99.90;;;;;;5030177;28;20411;-74
2022/11/25 09:39:04;;;;;;;13.35;4.70;;;9.00;99.90;;;;;;4979018;28;20407;-74
2022/11/25 09:48:24;;;;;;;13.70;4.80;;;9.10;99.90;;;;;;5006209;28;20506;-73
2022/11/25 09:51:08;;;;;;;14.55;5.53;;;9.20;99.90;;;;;;5007783;28;20416;-73
2022/11/25 09:53:42;;;;;;;14.93;5.00;;;9.40;99.90;;;;;;5011434;28;20478;-74
2022/11/25 09:56:17;;;;;;;11.63;4.47;;;9.50;99.90;;;;;;5029132;28;20411;-74
2022/11/25 09:59:11;;;;;;;15.45;4.97;;;9.50;99.90;;;;;;5025669;28;20410;-74
2022/11/25 10:01:49;;;;;;;17.38;4.90;;;9.60;99.90;;;;;;5006217;28;20434;-74
2022/11/25 10:04:24;;;;;;;13.80;4.30;;;9.60;99.90;;;;;;5028745;28;20757;-74
2022/11/25 10:06:55;;;;;;;14.20;4.35;;;9.60;99.90;;;;;;5028747;28;20407;-73
2022/11/25 10:09:24;;;;;;;12.73;3.87;;;9.50;99.90;;;;;;5027855;28;20903;-73
2022/11/25 10:12:02;;;;;;;13.52;4.25;;;9.50;99.90;;;;;;5046903;28;20612;-74
2022/11/25 10:14:46;;;;;;;12.25;3.97;;;9.60;99.90;;;;;;5030560;28;20482;-74
2022/11/25 10:17:33;;;;;;;11.43;4.50;;;9.60;99.90;;;;;;5021957;28;20427;-74
2022/11/25 10:20:06;;;;;;;13.38;4.32;;;9.60;99.90;;;;;;5010876;28;20967;-73
2022/11/25 10:22:40;;;;;;;13.02;4.20;;;9.60;99.90;;;;;;5046079;28;20424;-73
2022/11/25 10:25:23;;;;;;;10.85;4.07;;;9.70;99.90;;;;;;5041665;28;20409;-73
2022/11/25 10:28:15;;;;;;;11.60;4.00;;;9.80;99.90;;;;;;5027581;28;20492;-74
2022/11/25 10:30:59;;;;;;;9.07;3.40;;;10.40;99.90;;;;;;5010570;28;20477;-74
2022/11/25 10:33:31;;;;;;;10.77;3.15;;;11.10;99.90;;;;;;5037853;28;20485;-75
2022/11/25 10:36:09;;;;;;;9.27;3.33;;;11.40;99.90;;;;;;5011355;28;20933;-74
2022/11/25 10:39:05;;;;;;;12.32;3.47;;;11.40;99.90;;;;;;5026630;28;20461;-73
2022/11/25 10:41:40;;;;;;;9.65;2.92;;;11.30;99.90;;;;;;5009609;28;20496;-73
2022/11/25 10:44:28;;;;;;;7.63;2.83;;;11.20;99.90;;;;;;5036054;28;21024;-73
2022/11/25 10:47:01;;;;;;;9.15;3.10;;;11.10;99.90;;;;;;5035525;28;20445;-73
2022/11/25 10:49:34;;;;;;;9.15;3.10;;;10.90;99.90;;;;;;5001090;28;20420;-73
2022/11/25 10:52:00;;;;;;;9.48;3.10;;;10.90;99.90;;;;;;5030493;28;20871;-73
2022/11/25 10:54:27;;;;;;;12.80;2.80;;;10.90;99.90;;;;;;5012702;28;20494;-73
2022/11/25 10:56:59;;;;;;;7.95;2.72;;;10.90;99.90;;;;;;5013868;28;20506;-73
2022/11/25 10:59:37;;;;;;;8.25;2.80;;;10.90;99.90;;;;;;5011395;28;20406;-73
2022/11/25 11:02:25;;;;;;;9.00;2.70;;;11.00;99.90;;;;;;5028101;28;20419;-73
2022/11/25 11:05:15;;;;;;;9.43;2.88;;;11.40;99.90;;;;;;5010539;28;20418;-73
2022/11/25 11:07:42;;;;;;;9.57;2.70;;;12.00;99.90;;;;;;5040046;28;20455;-73
2022/11/25 11:10:25;;;;;;;9.93;2.72;;;12.50;99.90;;;;;;4996060;28;20913;-73
2022/11/25 11:13:04;;;;;;;7.38;2.85;;;12.60;99.90;;;;;;5026732;28;20533;-73
2022/11/25 11:15:32;;;;;;;9.05;2.88;;;12.60;99.90;;;;;;5031231;28;20897;-73
2022/11/25 11:18:13;;;;;;;9.75;2.35;;;12.90;99.90;;;;;;5037535;28;20475;-73
2022/11/25 11:20:45;;;;;;;8.27;2.30;;;13.30;99.90;;;;;;5043147;28;20410;-73
2022/11/25 11:23:13;;;;;;;8.68;2.42;;;13.50;99.90;;;;;;5027956;28;20403;-74
2022/11/25 11:25:52;;;;;;;7.95;2.47;;;13.40;99.90;;;;;;4993881;28;20411;-74
2022/11/25 11:28:39;;;;;;;9.63;2.58;;;13.30;99.90;;;;;;5027708;28;20502;-73
2022/11/25 11:31:18;;;;;;;10.43;2.65;;;12.90;99.90;;;;;;5014066;28;20833;-73
2022/11/25 11:33:47;;;;;;;10.25;2.85;;;12.60;99.90;;;;;;5038035;28;20616;-73
2022/11/25 11:36:54;;;;;;;8.93;2.35;;;12.30;99.90;;;;;;5028146;28;20479;-73
2022/11/25 11:39:34;;;;;;;9.77;2.90;;;11.90;99.90;;;;;;4977053;28;20836;-73
2022/11/25 11:42:08;;;;;;;11.25;2.72;;;11.70;99.90;;;;;;5010311;28;20423;-74
2022/11/25 11:45:02;;;;;;;9.95;2.50;;;11.50;99.90;;;;;;5041758;28;20465;-73
2022/11/25 11:47:31;;;;;;;10.35;3.15;;;11.50;99.90;;;;;;5012393;28;20414;-73
2022/11/25 11:50:20;;;;;;;12.05;2.95;;;11.50;99.90;;;;;;4997961;28;20449;-73
2022/11/25 11:52:55;;;;;;;8.95;2.80;;;11.50;99.90;;;;;;5041908;28;20519;-73
2022/11/25 11:55:33;;;;;;;10.40;2.70;;;11.50;99.90;;;;;;5017842;28;20784;-73
2022/11/25 11:58:21;;;;;;;11.00;2.80;;;11.50;99.90;;;;;;5016026;28;20413;-74
2022/11/25 12:01:01;;;;;;;11.60;2.85;;;11.60;99.90;;;;;;5029245;28;20414;-73
2022/11/25 12:03:31;;;;;;;10.30;2.65;;;11.60;99.90;;;;;;5047069;28;20450;-73
2022/11/25 12:06:03;;;;;;;10.93;2.70;;;11.50;99.90;;;;;;5029448;28;20437;-73
2022/11/25 12:08:33;;;;;;;10.95;2.90;;;11.60;99.90;;;;;;5038433;28;20532;-73
2022/11/25 12:11:08;;;;;;;9.93;2.63;;;11.70;99.90;;;;;;5020589;28;20911;-73
2022/11/25 12:13:54;;;;;;;9.88;3.15;;;11.70;99.90;;;;;;5044677;28;21125;-73
2022/11/25 12:16:28;;;;;;;10.07;2.53;;;11.70;99.90;;;;;;5031028;28;20415;-73
2022/11/25 12:19:01;;;;;;;11.05;2.50;;;11.60;99.90;;;;;;5037705;28;20494;-73
2022/11/25 12:21:42;;;;;;;10.80;2.38;;;11.60;99.90;;;;;;5047970;28;20402;-73
2022/11/25 12:24:20;;;;;;;11.38;2.53;;;11.60;99.90;;;;;;4997580;28;20933;-73
2022/11/25 12:26:50;;;;;;;11.65;2.67;;;11.60;99.90;;;;;;5011072;28;20471;-73
2022/11/25 12:29:32;;;;;;;9.57;2.27;;;11.60;99.90;;;;;;5004113;28;20413;-73
2022/11/25 12:32:30;;;;;;;11.77;2.53;;;11.50;99.90;;;;;;5019493;28;20410;-73
2022/11/25 12:35:19;;;;;;;11.20;3.47;;;11.40;99.90;;;;;;4999762;28;20445;-73
2022/11/25 12:37:55;;;;;;;10.82;2.65;;;11.40;99.90;;;;;;5030476;28;20412;-73
2022/11/25 12:40:52;;;;;;;11.43;2.55;;;11.30;99.90;;;;;;5049667;28;20915;-73
2022/11/25 12:43:37;;;;;;;10.18;2.25;;;11.20;99.90;;;;;;5004324;28;20479;-73
2022/11/25 12:46:21;;;;;;;11.10;2.40;;;11.10;99.90;;;;;;5030112;28;20417;-73
2022/11/25 12:48:47;;;;;;;9.02;2.40;;;11.10;99.90;;;;;;5015817;28;20676;-74
2022/11/25 12:51:22;;;;;;;12.70;2.40;;;11.10;99.90;;;;;;5048871;28;20409;-73
2022/11/25 12:54:23;;;;;;;10.88;2.20;;;11.20;99.90;;;;;;5048382;28;20437;-73
2022/11/25 12:57:12;;;;;;;11.20;2.17;;;11.20;99.90;;;;;;5022277;28;20407;-73
2022/11/25 13:00:08;;;;;;;14.35;2.67;;;11.10;99.90;;;;;;5032298;28;20417;-74
2022/11/25 13:03:01;;;;;;;8.93;1.92;;;11.10;99.90;;;;;;5045453;28;20450;-73
2022/11/25 13:05:44;;;;;;;11.82;2.38;;;11.10;99.90;;;;;;5013628;28;20929;-73
2022/11/25 13:08:28;;;;;;;11.30;1.83;;;11.10;99.90;;;;;;5012372;28;20515;-73
2022/11/25 13:11:26;;;;;;;11.60;2.17;;;11.10;99.90;;;;;;5039354;28;20409;-73